Ryoho Maru No.2 — JD2964 — position and weather

sailwx.info

Track history (hours):
 
Tides and Currents Weather Stations Pressure Air Temp Water Temp Dewpoint Dewpoint Depression Visibility Wind Speed Wind Dir Waves Ship Positions

Ryoho Maru No.2

Last reported at 2014-Jul-22 20:31 UTC. Time now 2014-Jul-22 21:34 UTC.
Position N 35°30' E 139°49'.

Length 57 m; draft 4 m.

Type: Tanker. MMSI: 431001062.

Date/timePositionNaut miles runAvg speedWind from/ knotsBaromVisibWave heightAir tempDewpointWater temp
2014-Jul-22 20:31N 35°30' E 139°49'0 0.0
2014-Jul-22 19:31N 35°30' E 139°49'6 5.9
2014-Jul-22 18:33N 35°25' E 139°46'10 9.9
2014-Jul-22 17:33N 35°15' E 139°47'1110.6
2014-Jul-22 16:33N 35°04' E 139°44'1211.9
2014-Jul-22 15:33N 34°57' E 139°33'  
2014-Jul-19 20:33N 34°45' E 139°11'19 9.1
2014-Jul-19 18:28N 34°49' E 139°33'1010.6
2014-Jul-19 17:33N 34°51' E 139°45'1110.9
2014-Jul-19 16:32N 34°54' E 139°58'1110.7
2014-Jul-19 15:33N 34°59' E 140°09'1110.6
2014-Jul-19 14:32N 35°06' E 140°19'1110.5
2014-Jul-19 13:31N 35°14' E 140°29'1010.5
2014-Jul-19 12:33N 35°22' E 140°36'1010.5
2014-Jul-19 11:33N 35°30' E 140°44'  
2014-Jul-15 22:11N 36°50' E 141°12'9 9.7
2014-Jul-15 21:15N 36°41' E 141°10'710.1
2014-Jul-15 20:33N 36°35' E 141°08'12 9.8
2014-Jul-15 19:19N 36°23' E 141°05'7 9.6
2014-Jul-15 18:33N 36°16' E 141°03'9 9.1
2014-Jul-15 17:34N 36°07' E 141°01'9 9.2
2014-Jul-15 16:34N 35°58' E 140°58'9 9.2
2014-Jul-15 15:32N 35°48' E 140°57'9 9.4
2014-Jul-15 14:34N 35°40' E 140°53'10 9.7
2014-Jul-15 13:33N 35°32' E 140°46'10 9.7
2014-Jul-15 12:33N 35°24' E 140°39'1010.0
2014-Jul-15 11:33N 35°16' E 140°31'14 9.9
2014-Jul-15 10:08N 35°06' E 140°19'710.2
2014-Jul-15 09:27N 35°02' E 140°12'1111.0
2014-Jul-15 08:28N 34°56' E 140°02'11 9.9
2014-Jul-15 07:22N 34°53' E 139°49'8 9.4
2014-Jul-15 06:33N 34°59' E 139°44'9 9.5
2014-Jul-15 05:33N 35°09' E 139°46'9 9.2
2014-Jul-15 04:34N 35°18' E 139°44'9 9.1
2014-Jul-15 03:33N 35°27' E 139°45'5 4.6
2014-Jul-15 02:32N 35°32' E 139°45'0 0.0
2014-Jul-15 01:32N 35°32' E 139°45'0 0.0
2014-Jul-15 00:32N 35°32' E 139°45'2 1.6
2014-Jul-14 23:33N 35°30' E 139°47'3 2.6
2014-Jul-14 22:33N 35°30' E 139°50'0 0.0
2014-Jul-14 21:33N 35°30' E 139°50'0 0.0
2014-Jul-14 20:33N 35°30' E 139°50'0 0.0
2014-Jul-14 19:33N 35°30' E 139°50'0 0.0
2014-Jul-14 18:33N 35°30' E 139°50'0 0.0
2014-Jul-14 17:33N 35°30' E 139°50'0 0.0
2014-Jul-14 16:30N 35°30' E 139°50'0 0.0
2014-Jul-14 15:33N 35°30' E 139°50'0 0.0
2014-Jul-14 14:33N 35°30' E 139°50'0 0.0
2014-Jul-14 13:30N 35°30' E 139°50'0 0.0
2014-Jul-14 12:33N 35°30' E 139°50'0 0.0
2014-Jul-14 11:33N 35°30' E 139°50'0 0.0
2014-Jul-14 10:33N 35°30' E 139°50'0 0.0
2014-Jul-14 09:30N 35°30' E 139°50'8 8.9
2014-Jul-14 08:33N 35°29' E 140°00'1 1.3
2014-Jul-14 07:31N 35°28' E 140°01'0 0.0
2014-Jul-14 06:19N 35°28' E 140°01'0 0.0
2014-Jul-14 05:28N 35°28' E 140°01'0 0.0
2014-Jul-14 04:28N 35°28' E 140°01'1 1.5
2014-Jul-14 03:34N 35°29' E 139°60'0 0.0
2014-Jul-14 02:28N 35°29' E 139°60'0 0.0
2014-Jul-14 01:16N 35°29' E 139°60'0 0.0
2014-Jul-14 00:28N 35°29' E 139°60'0 0.0
2014-Jul-13 23:28N 35°29' E 139°60'0 0.0
2014-Jul-13 22:31N 35°29' E 139°60'0 0.0
2014-Jul-13 21:28N 35°29' E 139°60'0 0.1
2014-Jul-13 20:31N 35°29' E 139°60'0 0.0
2014-Jul-13 19:31N 35°29' E 139°60'6 6.2
2014-Jul-13 18:33N 35°28' E 139°53'1111.5
2014-Jul-13 17:34N 35°19' E 139°44'1110.8
2014-Jul-13 16:34N 35°09' E 139°47'1110.6
2014-Jul-13 15:34N 34°58' E 139°44'9 8.1
2014-Jul-13 14:28N 34°52' E 139°52'7 7.8
2014-Jul-13 13:32N 34°55' E 140°00'9 7.8
2014-Jul-13 12:24N 34°60' E 140°09'23 7.8
2014-Jul-13 09:28N 35°15' E 140°30'18 8.9
2014-Jul-13 07:27N 35°29' E 140°43'9 9.4
2014-Jul-13 06:32N 35°36' E 140°50'10 9.9
2014-Jul-13 05:32N 35°45' E 140°56'10 9.7
2014-Jul-13 04:33N 35°54' E 140°57'10 9.5
2014-Jul-13 03:33N 36°03' E 140°60'1010.1
2014-Jul-13 02:31N 36°13' E 141°02'2110.4
2014-Jul-13 00:29N 36°34' E 141°08'1010.5
2014-Jul-12 23:33N 36°44' E 141°10'  
Track history (hours):
 
Tides and Currents Weather Stations Pressure Air Temp Water Temp Dewpoint Dewpoint Depression Visibility Wind Speed Wind Dir Waves Ship Positions

Ryoho Maru No.2

Last reported at 2014-Jul-22 20:31 UTC. Time now 2014-Jul-22 21:34 UTC.
Position N 35°30' E 139°49'.

Length 57 m; draft 4 m.

Type: Tanker. MMSI: 431001062.

Date/timePositionNaut miles runAvg speedWind from/ knotsBaromVisibWave heightAir tempDewpointWater temp
2014-Jul-22 20:31N 35°30' E 139°49'0 0.0
2014-Jul-22 19:31N 35°30' E 139°49'6 5.9
2014-Jul-22 18:33N 35°25' E 139°46'10 9.9
2014-Jul-22 17:33N 35°15' E 139°47'1110.6
2014-Jul-22 16:33N 35°04' E 139°44'1211.9
2014-Jul-22 15:33N 34°57' E 139°33'  
2014-Jul-19 20:33N 34°45' E 139°11'19 9.1
2014-Jul-19 18:28N 34°49' E 139°33'1010.6
2014-Jul-19 17:33N 34°51' E 139°45'1110.9
2014-Jul-19 16:32N 34°54' E 139°58'1110.7
2014-Jul-19 15:33N 34°59' E 140°09'1110.6
2014-Jul-19 14:32N 35°06' E 140°19'1110.5
2014-Jul-19 13:31N 35°14' E 140°29'1010.5
2014-Jul-19 12:33N 35°22' E 140°36'1010.5
2014-Jul-19 11:33N 35°30' E 140°44'  
2014-Jul-15 22:11N 36°50' E 141°12'9 9.7
2014-Jul-15 21:15N 36°41' E 141°10'710.1
2014-Jul-15 20:33N 36°35' E 141°08'12 9.8
2014-Jul-15 19:19N 36°23' E 141°05'7 9.6
2014-Jul-15 18:33N 36°16' E 141°03'9 9.1
2014-Jul-15 17:34N 36°07' E 141°01'9 9.2
2014-Jul-15 16:34N 35°58' E 140°58'9 9.2
2014-Jul-15 15:32N 35°48' E 140°57'9 9.4
2014-Jul-15 14:34N 35°40' E 140°53'10 9.7
2014-Jul-15 13:33N 35°32' E 140°46'10 9.7
2014-Jul-15 12:33N 35°24' E 140°39'1010.0
2014-Jul-15 11:33N 35°16' E 140°31'14 9.9
2014-Jul-15 10:08N 35°06' E 140°19'710.2
2014-Jul-15 09:27N 35°02' E 140°12'1111.0
2014-Jul-15 08:28N 34°56' E 140°02'11 9.9
2014-Jul-15 07:22N 34°53' E 139°49'8 9.4
2014-Jul-15 06:33N 34°59' E 139°44'9 9.5
2014-Jul-15 05:33N 35°09' E 139°46'9 9.2
2014-Jul-15 04:34N 35°18' E 139°44'9 9.1
2014-Jul-15 03:33N 35°27' E 139°45'5 4.6
2014-Jul-15 02:32N 35°32' E 139°45'0 0.0
2014-Jul-15 01:32N 35°32' E 139°45'0 0.0
2014-Jul-15 00:32N 35°32' E 139°45'2 1.6
2014-Jul-14 23:33N 35°30' E 139°47'3 2.6
2014-Jul-14 22:33N 35°30' E 139°50'0 0.0
2014-Jul-14 21:33N 35°30' E 139°50'0 0.0
2014-Jul-14 20:33N 35°30' E 139°50'0 0.0
2014-Jul-14 19:33N 35°30' E 139°50'0 0.0
2014-Jul-14 18:33N 35°30' E 139°50'0 0.0
2014-Jul-14 17:33N 35°30' E 139°50'0 0.0
2014-Jul-14 16:30N 35°30' E 139°50'0 0.0
2014-Jul-14 15:33N 35°30' E 139°50'0 0.0
2014-Jul-14 14:33N 35°30' E 139°50'0 0.0
2014-Jul-14 13:30N 35°30' E 139°50'0 0.0
2014-Jul-14 12:33N 35°30' E 139°50'0 0.0
2014-Jul-14 11:33N 35°30' E 139°50'0 0.0
2014-Jul-14 10:33N 35°30' E 139°50'0 0.0
2014-Jul-14 09:30N 35°30' E 139°50'8 8.9
2014-Jul-14 08:33N 35°29' E 140°00'1 1.3
2014-Jul-14 07:31N 35°28' E 140°01'0 0.0
2014-Jul-14 06:19N 35°28' E 140°01'0 0.0
2014-Jul-14 05:28N 35°28' E 140°01'0 0.0
2014-Jul-14 04:28N 35°28' E 140°01'1 1.5
2014-Jul-14 03:34N 35°29' E 139°60'0 0.0
2014-Jul-14 02:28N 35°29' E 139°60'0 0.0
2014-Jul-14 01:16N 35°29' E 139°60'0 0.0
2014-Jul-14 00:28N 35°29' E 139°60'0 0.0
2014-Jul-13 23:28N 35°29' E 139°60'0 0.0
2014-Jul-13 22:31N 35°29' E 139°60'0 0.0
2014-Jul-13 21:28N 35°29' E 139°60'0 0.1
2014-Jul-13 20:31N 35°29' E 139°60'0 0.0
2014-Jul-13 19:31N 35°29' E 139°60'6 6.2
2014-Jul-13 18:33N 35°28' E 139°53'1111.5
2014-Jul-13 17:34N 35°19' E 139°44'1110.8
2014-Jul-13 16:34N 35°09' E 139°47'1110.6
2014-Jul-13 15:34N 34°58' E 139°44'9 8.1
2014-Jul-13 14:28N 34°52' E 139°52'7 7.8
2014-Jul-13 13:32N 34°55' E 140°00'9 7.8
2014-Jul-13 12:24N 34°60' E 140°09'23 7.8
2014-Jul-13 09:28N 35°15' E 140°30'18 8.9
2014-Jul-13 07:27N 35°29' E 140°43'9 9.4
2014-Jul-13 06:32N 35°36' E 140°50'10 9.9
2014-Jul-13 05:32N 35°45' E 140°56'10 9.7
2014-Jul-13 04:33N 35°54' E 140°57'10 9.5
2014-Jul-13 03:33N 36°03' E 140°60'1010.1
2014-Jul-13 02:31N 36°13' E 141°02'2110.4
2014-Jul-13 00:29N 36°34' E 141°08'1010.5
2014-Jul-12 23:33N 36°44' E 141°10'  

Dump ship's entire track history